Forside
METAR-TAF:

METAR-TAF

Lufthavne :

Kulob, Tadsjikistan

Breddekreds: 37-59-18N, længdekreds: 069-48-18E, højde: 699 m

Aktuelle vejr

Denne rapport blev lavet for 30 minutter siden, kl. 09:30 UTC
Vind 6 kt fra sydsydvest, varierende mellem sydøst og vest
Temperatur 28°C
Fugtighed 25%
Tryk 1017 hPa
Sigt 10 km eller mere

METAR: UTDK 230930Z 20003MPS 130V280 9999 NSC 28/06 Q1017 R01/09//70 RMK QFE705/0940

Tid: 15:00 (10:00 UTC)

Vejrudsigter

Denne rapport blev lavet for 1 time og 0 minutter siden, kl. 09:00 UTC
Foreløbig gælder fra 23 på 10 UTC til 23 på 19 UTC
Vind 10 kt fra sydsydvest
Sigt: 6000 m
Nogle få skyer i en højde af 6600 ft, Cumulonimbus.
Spredte skyer i en højde af 10000 ft
Midlertidig
fra 23 på 10 UTC til 23 på 19 UTC
Vind 4 kt fra varierende retninger
ændring
fra 23 på 14 UTC til 23 på 16 UTC
Vind 10 kt fra nordnordøst

TAF: UTDK 230900Z 2310/2319 20005MPS 6000 FEW066CB SCT100 TEMPO 2310/2319 VRB02MPS BECMG 2314/2316 03005MPS

Vejrobservationer og prognoser fra mere end 4000 lufthavne (METAR og TAF).

De gule og røde prikker repræsenterer de meteorologiske stationer.

Flyt musen over at se navnet på stationen.

Så klik over at se vejr observationer og prognoser.

At skifte det kort: Klik på de grønne knapper med et sort kors for at zoome ind; på den grønne knap med en bindestreg for at zoome ud; eller på de grønne pile for tilstødende kort.


METAR-TAF: